Time;durP1;ratioP1;P1;durP2;ratioP2;P2;SDS_P1;SDS_P2;PMS_P1;PMS_P2;Temp;Humidity;BMP_temperature;BMP_pressure;BME280_temperature;BME280_humidity;BME280_pressure;Samples;Min_cycle;Max_cycle;Signal;HPM_P1;HPM_P2
2022/06/03 00:02:32;;;;;;;3.75;1.10;;;;;;;17.58;44.19;99114.84;4451879;32;20174;-73
2022/06/03 00:05:27;;;;;;;1.33;1.20;;;;;;;17.62;43.94;99111.69;4451819;32;20466;-74
2022/06/03 00:08:32;;;;;;;1.10;1.02;;;;;;;17.64;43.95;99109.69;4451546;32;20105;-73
2022/06/03 00:11:37;;;;;;;2.00;1.50;;;;;;;17.60;44.02;99104.94;4451592;32;20157;-73
2022/06/03 00:14:23;;;;;;;;;;;;;;;17.55;44.31;99113.41;4451837;32;20128;-74
2022/06/03 00:17:28;;;;;;;1.40;1.30;;;;;;;17.50;44.82;99110.44;4451682;32;20160;-74
2022/06/03 00:20:26;;;;;;;1.60;1.02;;;;;;;17.41;45.32;99120.25;4451478;32;20130;-73
2022/06/03 00:22:59;;;;;;;4.90;1.40;;;;;;;17.31;45.41;99138.16;4451690;32;20109;-73
2022/06/03 00:25:41;;;;;;;1.30;1.20;;;;;;;17.22;45.75;99144.50;4451780;32;20201;-74
2022/06/03 00:28:27;;;;;;;1.30;1.20;;;;;;;17.13;46.57;99141.03;4451618;32;20098;-74
2022/06/03 00:31:31;;;;;;;3.65;1.00;;;;;;;17.09;46.60;99142.38;4454948;32;20117;-74
2022/06/03 00:34:17;;;;;;;;;;;;;;;17.02;47.39;99143.06;4482007;32;20469;-74
2022/06/03 00:37:13;;;;;;;2.22;1.55;;;;;;;17.08;47.91;99154.78;4485028;32;19972;-73
2022/06/03 00:40:18;;;;;;;2.05;1.12;;;;;;;16.99;49.39;99161.09;4484015;32;20112;-73
2022/06/03 00:42:53;;;;;;;;;;;;;;;16.97;48.59;99161.28;4485505;31;20093;-73
2022/06/03 00:45:40;;;;;;;2.65;1.50;;;;;;;16.79;49.13;99157.94;4484296;32;19975;-73
2022/06/03 00:48:16;;;;;;;4.60;1.50;;;;;;;16.71;50.13;99166.72;4485284;31;20139;-74
2022/06/03 00:51:02;;;;;;;1.40;1.30;;;;;;;16.54;51.16;99165.09;4485341;31;20558;-73
2022/06/03 00:53:57;;;;;;;1.65;1.27;;;;;;;16.41;51.46;99163.78;4485209;31;20149;-74
2022/06/03 00:56:33;;;;;;;3.22;1.48;;;;;;;16.27;51.26;99154.66;4485093;31;20085;-73
2022/06/03 00:59:24;;;;;;;1.98;1.30;;;;;;;16.20;51.40;99158.97;4483803;32;20110;-73
2022/06/03 01:02:06;;;;;;;3.95;1.62;;;;;;;16.20;51.78;99166.91;4483840;32;20096;-73
2022/06/03 01:04:40;;;;;;;4.70;1.70;;;;;;;16.19;52.56;99164.41;4484979;31;20118;-73
2022/06/03 01:07:37;;;;;;;3.45;1.65;;;;;;;16.14;53.40;99173.66;4484786;31;20096;-73
2022/06/03 01:10:26;;;;;;;1.98;1.55;;;;;;;16.10;55.11;99168.84;4420200;32;20116;-73
2022/06/03 01:13:14;;;;;;;2.37;1.70;;;;;;;16.03;55.32;99165.19;4407747;32;20101;-73
2022/06/03 01:16:05;;;;;;;3.58;1.98;;;;;;;16.06;56.47;99178.91;4407635;32;20140;-73
2022/06/03 01:18:41;;;;;;;3.90;2.00;;;;;;;16.12;57.27;99170.34;4420491;32;20116;-73
2022/06/03 01:21:47;;;;;;;2.25;1.80;;;;;;;16.18;57.74;99163.56;4420246;32;20206;-73
2022/06/03 01:24:36;;;;;;;3.03;2.20;;;;;;;16.34;57.63;99165.41;4359927;32;20130;-73
2022/06/03 01:27:57;;;;;;;2.17;1.98;;;;;;;16.50;57.48;99178.66;4359904;32;20492;-73
2022/06/03 01:30:42;;;;;;;4.65;1.98;;;;;;;16.59;57.48;99178.63;4286380;33;20168;-73
2022/06/03 01:33:36;;;;;;;4.82;2.12;;;;;;;16.66;57.47;99182.28;4274670;33;20089;-74
2022/06/03 01:36:29;;;;;;;2.00;1.80;;;;;;;16.66;57.53;99182.28;4286257;33;20120;-73
2022/06/03 01:39:15;;;;;;;2.55;2.00;;;;;;;16.72;57.68;99181.59;4275118;33;20184;-73
2022/06/03 01:42:04;;;;;;;2.95;1.73;;;;;;;16.72;57.97;99186.91;4286272;33;20156;-73
2022/06/03 01:44:42;;;;;;;4.82;2.00;;;;;;;16.75;58.18;99197.16;4286468;33;20117;-73
2022/06/03 01:47:29;;;;;;;1.98;1.77;;;;;;;16.76;58.55;99200.59;4296524;33;20176;-73
2022/06/03 01:50:23;;;;;;;2.83;1.95;;;;;;;16.78;58.82;99202.09;4331815;33;20639;-73
2022/06/03 01:53:18;;;;;;;2.90;2.03;;;;;;;16.81;59.45;99207.06;4331807;33;20119;-73
2022/06/03 01:56:07;;;;;;;4.75;2.05;;;;;;;16.88;59.83;99203.78;4331702;33;20130;-73
2022/06/03 01:58:51;;;;;;;4.37;2.10;;;;;;;16.88;60.32;99201.97;4331698;33;20115;-73
2022/06/03 02:01:43;;;;;;;5.25;1.95;;;;;;;16.88;60.71;99201.13;4374141;32;20144;-73
2022/06/03 02:04:25;;;;;;;3.78;1.90;;;;;;;16.87;60.88;99204.78;4419240;32;20223;-73
2022/06/03 02:06:53;;;;;;;2.47;1.80;;;;;;;16.87;61.03;99207.44;4469004;32;20156;-73
2022/06/03 02:09:56;;;;;;;2.05;1.70;;;;;;;16.85;61.57;99203.09;4470593;32;20154;-73
2022/06/03 02:12:55;;;;;;;6.20;2.20;;;;;;;16.95;61.65;99202.94;4437051;32;20109;-73
2022/06/03 02:15:31;;;;;;;2.45;2.10;;;;;;;16.91;62.59;99206.94;4436911;32;20089;-73
2022/06/03 02:18:13;;;;;;;4.55;2.00;;;;;;;16.81;63.19;99204.41;4436900;32;20633;-74
2022/06/03 02:21:11;;;;;;;7.95;2.17;;;;;;;16.74;63.81;99192.84;4437008;32;20093;-73
2022/06/03 02:24:11;;;;;;;5.18;2.25;;;;;;;16.66;64.58;99187.56;4436896;32;20121;-73
2022/06/03 02:27:04;;;;;;;3.65;2.20;;;;;;;16.67;65.19;99194.53;4436792;32;20105;-74
2022/06/03 02:32:58;;;;;;;3.47;2.40;;;;;;;16.75;66.90;99191.84;4436907;32;20113;-73
2022/06/03 02:35:47;;;;;;;3.42;2.60;;;;;;;16.75;67.75;99197.16;4424254;32;20145;-73
2022/06/03 02:38:16;;;;;;;3.47;2.85;;;;;;;16.77;68.28;99195.16;4436705;32;20548;-73
2022/06/03 02:41:09;;;;;;;4.07;2.42;;;;;;;16.72;68.88;99197.47;4436931;32;20443;-73
2022/06/03 02:43:45;;;;;;;3.55;2.65;;;;;;;16.84;68.90;99198.78;4437004;32;20597;-73
2022/06/03 02:46:27;;;;;;;2.85;2.50;;;;;;;16.86;68.86;99201.28;4436940;32;20617;-74
2022/06/03 02:49:32;;;;;;;2.67;2.37;;;;;;;16.73;69.35;99193.00;4443424;32;20092;-74
2022/06/03 02:52:38;;;;;;;6.07;2.42;;;;;;;16.66;69.82;99192.84;4469100;32;20464;-74
2022/06/03 02:55:34;;;;;;;2.87;2.45;;;;;;;16.56;70.40;99186.91;4470144;32;20104;-73
2022/06/03 02:58:04;;;;;;;3.62;2.53;;;;;;;16.47;70.83;99189.56;4469484;32;20092;-73
2022/06/03 03:00:42;;;;;;;3.58;2.65;;;;;;;16.53;70.85;99189.88;4470162;32;20084;-73
2022/06/03 03:03:18;;;;;;;4.95;2.72;;;;;;;16.54;70.93;99186.25;4470090;32;20111;-74
2022/06/03 03:05:52;;;;;;;3.22;2.65;;;;;;;16.54;71.18;99186.25;4470155;32;20764;-73
2022/06/03 03:08:44;;;;;;;3.90;2.83;;;;;;;16.55;70.99;99190.53;4469998;32;20454;-73
2022/06/03 03:11:49;;;;;;;5.40;2.62;;;;;;;16.59;70.74;99192.69;4468813;32;20441;-73
2022/06/03 03:14:41;;;;;;;3.78;2.60;;;;;;;16.59;70.63;99197.16;4470024;32;20111;-73
2022/06/03 03:17:17;;;;;;;4.45;2.90;;;;;;;16.55;70.54;99191.38;4470212;32;20138;-73
2022/06/03 03:19:58;;;;;;;5.03;2.53;;;;;;;16.57;70.39;99197.31;4470168;32;20092;-73
2022/06/03 03:22:28;;;;;;;3.10;2.33;;;;;;;16.64;69.97;99200.13;4470228;32;20085;-74
2022/06/03 03:25:01;;;;;;;3.58;2.45;;;;;;;16.76;69.14;99198.81;4470369;32;20568;-73
2022/06/03 03:28:36;;;;;;;4.87;2.70;;;;;;;16.90;68.71;99199.97;4469964;32;20383;-73
2022/06/03 03:31:25;;;;;;;2.90;2.37;;;;;;;17.08;67.43;99213.03;4375435;32;20114;-73
2022/06/03 03:34:10;;;;;;;2.85;2.35;;;;;;;17.23;66.98;99222.91;4375544;32;20287;-73
2022/06/03 03:37:28;;;;;;;4.43;2.35;;;;;;;17.41;66.23;99218.25;4375403;32;20113;-73
2022/06/03 03:40:30;;;;;;;5.00;2.95;;;;;;;17.61;65.18;99221.31;4316636;33;20120;-74
2022/06/03 03:43:15;;;;;;;3.90;2.53;;;;;;;17.77;64.31;99214.31;4316541;33;20187;-73
2022/06/03 03:46:37;;;;;;;4.15;2.50;;;;;;;17.85;63.91;99219.56;4316639;33;20182;-73
2022/06/03 03:49:40;;;;;;;4.68;2.60;;;;;;;17.97;63.32;99217.38;4273247;33;20445;-73
2022/06/03 03:52:37;;;;;;;4.72;2.60;;;;;;;18.04;63.53;99219.16;4272964;33;20114;-73
2022/06/03 03:55:30;;;;;;;5.35;2.80;;;;;;;18.00;63.60;99220.53;4273037;33;20243;-74
2022/06/03 03:58:24;;;;;;;3.83;2.47;;;;;;;17.99;63.28;99229.47;4272689;33;20119;-73
2022/06/03 04:01:44;;;;;;;4.18;2.55;;;;;;;17.98;63.56;99219.03;4273020;33;20169;-73
2022/06/03 04:04:25;;;;;;;5.10;2.80;;;;;;;18.05;63.43;99223.47;4231668;33;20232;-73
2022/06/03 04:07:33;;;;;;;5.72;2.78;;;;;;;18.25;63.41;99220.38;4282234;33;20108;-73
2022/06/03 04:10:19;;;;;;;2.62;2.30;;;;;;;18.32;63.15;99225.78;4286078;33;20101;-73
2022/06/03 04:13:09;;;;;;;6.75;2.20;;;;;;;18.44;62.69;99225.22;4287522;33;20123;-74
2022/06/03 04:15:55;;;;;;;7.37;2.92;;;;;;;18.60;62.32;99234.88;4332419;32;20112;-73
2022/06/03 04:18:32;;;;;;;3.30;2.35;;;;;;;18.65;62.24;99231.69;4360342;32;20175;-74
2022/06/03 04:21:42;;;;;;;4.78;2.60;;;;;;;18.68;61.96;99231.31;4360548;32;20087;-74
2022/06/03 04:24:35;;;;;;;5.95;2.60;;;;;;;18.70;61.94;99239.94;4341334;33;20087;-73
2022/06/03 04:27:23;;;;;;;5.07;2.70;;;;;;;18.82;61.33;99232.41;4332512;33;20142;-74
2022/06/03 04:30:01;;;;;;;3.85;2.28;;;;;;;18.85;61.05;99242.69;4345555;33;20145;-74
2022/06/03 04:32:46;;;;;;;3.30;2.30;;;;;;;18.76;61.15;99249.03;4345540;33;20103;-74
2022/06/03 04:35:35;;;;;;;3.40;2.47;;;;;;;18.63;62.16;99250.44;4345019;33;20190;-74
2022/06/03 04:38:20;;;;;;;3.65;3.20;;;;;;;18.49;62.22;99243.25;4330792;33;20139;-73
2022/06/03 04:41:06;;;;;;;4.18;2.53;;;;;;;18.51;62.30;99251.84;4358108;32;20114;-73
2022/06/03 04:44:10;;;;;;;5.05;3.00;;;;;;;18.39;62.28;99255.91;4420664;32;20085;-73
2022/06/03 04:46:38;;;;;;;;;;;;;;;18.37;62.59;99249.97;4397352;32;20167;-73
2022/06/03 04:49:18;;;;;;;5.30;2.67;;;;;;;18.30;62.95;99251.66;4386604;32;20139;-73
2022/06/03 04:51:45;;;;;;;5.95;4.18;;;;;;;18.50;62.30;99252.03;4388576;32;20186;-73
2022/06/03 04:54:41;;;;;;;4.78;2.95;;;;;;;18.84;61.21;99256.91;4404042;32;20510;-72
2022/06/03 04:57:46;;;;;;;8.38;2.83;;;;;;;19.05;61.03;99253.63;4387673;32;20200;-73
2022/06/03 05:00:30;;;;;;;3.92;2.80;;;;;;;19.22;59.91;99248.97;4417016;32;20478;-73
2022/06/03 05:03:03;;;;;;;3.87;2.65;;;;;;;19.40;59.95;99253.13;4463994;32;20553;-73
2022/06/03 05:05:59;;;;;;;3.12;2.37;;;;;;;19.57;58.79;99256.41;4470253;32;20155;-73
2022/06/03 05:08:57;;;;;;;7.32;2.90;;;;;;;19.65;58.90;99258.97;4460489;32;20779;-74
2022/06/03 05:11:40;;;;;;;8.68;3.78;;;;;;;19.81;57.75;99260.66;4460604;32;20100;-73
2022/06/03 05:14:47;;;;;;;3.40;2.58;;;;;;;19.88;58.33;99256.25;4461997;32;20161;-74
2022/06/03 05:17:44;;;;;;;6.80;2.80;;;;;;;20.00;56.81;99261.91;4464413;32;20135;-74
2022/06/03 05:20:30;;;;;;;4.70;2.87;;;;;;;20.11;57.10;99257.97;4458749;32;20119;-74
2022/06/03 05:23:16;;;;;;;5.80;2.78;;;;;;;20.27;55.39;99265.69;4466538;31;20108;-73
2022/06/03 05:25:56;;;;;;;7.85;3.12;;;;;;;20.13;56.32;99282.53;4465093;32;20136;-74
2022/06/03 05:28:34;;;;;;;3.15;2.70;;;;;;;20.16;56.71;99277.66;4449048;32;458620;-73
2022/06/03 05:31:11;;;;;;;3.05;2.58;;;;;;;20.19;56.12;99273.78;4462778;32;20109;-73
2022/06/03 05:33:59;;;;;;;5.50;3.40;;;;;;;20.12;55.89;99281.72;4462915;32;20167;-74
2022/06/03 05:36:45;;;;;;;7.62;2.95;;;;;;;20.27;56.38;99273.66;4463215;32;20639;-73
2022/06/03 05:39:33;;;;;;;4.85;2.78;;;;;;;20.44;55.39;99279.63;4462413;32;20576;-72
2022/06/03 05:42:24;;;;;;;10.82;3.95;;;;;;;20.47;55.26;99284.56;4465164;32;20109;-73
2022/06/03 05:45:10;;;;;;;5.40;2.70;;;;;;;20.51;56.08;99290.31;4461953;31;20093;-73
2022/06/03 05:47:47;;;;;;;6.37;2.85;;;;;;;20.69;56.06;99292.59;4461161;32;20179;-74
2022/06/03 05:50:18;;;;;;;9.98;2.80;;;;;;;20.66;54.40;99295.62;4458889;32;20097;-73
2022/06/03 05:52:54;;;;;;;10.18;2.80;;;;;;;20.86;54.68;99293.13;4457252;32;20105;-74
2022/06/03 05:55:30;;;;;;;3.65;2.62;;;;;;;21.00;54.92;99296.75;4463532;32;20394;-74
2022/06/03 05:58:13;;;;;;;7.78;2.83;;;;;;;21.15;54.11;99294.00;4461080;32;21017;-74
2022/06/03 06:00:48;;;;;;;3.12;2.55;;;;;;;21.28;52.67;99296.78;4463033;32;20135;-74
2022/06/03 06:03:21;;;;;;;3.28;2.78;;;;;;;21.31;51.28;99288.38;4461568;32;20554;-73
2022/06/03 06:06:10;;;;;;;6.90;3.58;;;;;;;21.13;49.98;99282.72;4462954;32;21084;-73
2022/06/03 06:09:11;;;;;;;8.38;3.08;;;;;;;21.23;49.71;99288.53;4461190;32;20161;-74
2022/06/03 06:11:50;;;;;;;6.15;2.60;;;;;;;21.19;49.54;99289.94;4459540;32;20104;-73
2022/06/03 06:14:42;;;;;;;10.75;3.17;;;;;;;21.33;50.17;99274.88;4460114;32;20105;-74
2022/06/03 06:17:41;;;;;;;12.90;3.08;;;;;;;21.31;49.59;99274.25;4460880;32;20122;-75
2022/06/03 06:20:17;;;;;;;4.85;2.90;;;;;;;21.40;48.04;99278.41;4461034;32;20097;-74
2022/06/03 06:22:49;;;;;;;3.50;2.30;;;;;;;21.58;48.19;99280.59;4457712;32;20108;-73
2022/06/03 06:25:34;;;;;;;5.37;2.60;;;;;;;21.71;48.41;99277.19;4458110;32;20097;-73
2022/06/03 06:28:04;;;;;;;2.83;2.53;;;;;;;21.54;47.99;99279.34;4458501;32;20111;-74
2022/06/03 06:31:13;;;;;;;7.12;2.53;;;;;;;21.60;47.15;99279.41;4462613;32;20109;-74
2022/06/03 06:34:09;;;;;;;7.30;2.72;;;;;;;21.78;47.13;99280.72;4396449;32;20122;-74
2022/06/03 06:36:38;;;;;;;5.43;2.62;;;;;;;21.82;47.36;99276.63;4406383;32;20106;-75
2022/06/03 06:39:20;;;;;;;2.85;2.35;;;;;;;21.84;46.52;99276.44;4396346;32;20363;-74
2022/06/03 06:42:15;;;;;;;7.53;2.80;;;;;;;21.66;46.75;99283.09;4396870;32;20168;-75
2022/06/03 06:44:55;;;;;;;4.57;2.53;;;;;;;21.79;47.04;99282.38;4396709;32;20125;-75
2022/06/03 06:47:26;;;;;;;5.45;2.65;;;;;;;21.90;46.72;99286.31;4398528;32;20125;-73
2022/06/03 06:50:00;;;;;;;4.57;2.53;;;;;;;22.12;46.82;99287.00;4400249;32;20136;-75
2022/06/03 06:52:50;;;;;;;2.85;2.30;;;;;;;22.10;46.29;99287.19;4400892;32;20420;-74
2022/06/03 06:56:11;;;;;;;6.45;2.70;;;;;;;22.21;48.69;99276.97;4364457;32;20098;-74
2022/06/03 06:58:51;;;;;;;4.35;2.60;;;;;;;22.18;46.88;99280.06;4331107;33;20241;-73
2022/06/03 07:01:44;;;;;;;3.40;2.53;;;;;;;22.35;47.28;99280.53;4317823;33;20867;-74
2022/06/03 07:04:18;;;;;;;2.67;2.43;;;;;;;22.49;47.54;99280.38;4329769;32;20177;-72
2022/06/03 07:06:53;;;;;;;6.40;2.80;;;;;;;22.55;47.20;99276.09;4357971;32;20152;-73
2022/06/03 07:09:36;;;;;;;3.90;2.80;;;;;;;22.56;46.77;99276.91;4360997;32;20141;-73
2022/06/03 07:12:14;;;;;;;4.45;3.03;;;;;;;22.51;46.83;99272.16;4377511;32;20130;-72
2022/06/03 07:15:07;;;;;;;9.80;2.87;;;;;;;22.53;48.25;99274.63;4369955;32;20107;-72
2022/06/03 07:20:42;;;;;;;6.75;3.00;;;;;;;22.53;47.74;99277.31;4320720;33;20112;-72
2022/06/03 07:23:31;;;;;;;4.22;2.30;;;;;;;22.61;47.54;99279.81;4330036;33;20135;-73
2022/06/03 07:26:28;;;;;;;6.00;3.17;;;;;;;22.65;47.74;99262.31;4325312;33;20132;-73
2022/06/03 07:29:32;;;;;;;5.07;2.90;;;;;;;22.75;47.90;99262.75;4313402;33;20149;-72
2022/06/03 07:32:18;;;;;;;9.80;3.22;;;;;;;22.99;47.70;99266.66;4330968;32;20106;-72
2022/06/03 07:34:59;;;;;;;3.15;2.85;;;;;;;23.13;47.54;99266.69;4374572;32;20115;-73
2022/06/03 07:37:47;;;;;;;11.57;3.12;;;;;;;23.14;46.55;99263.81;4372439;32;20161;-73
2022/06/03 07:40:16;;;;;;;5.85;2.80;;;;;;;23.18;46.86;99269.56;4373907;32;20123;-73
2022/06/03 07:43:01;;;;;;;6.60;2.90;;;;;;;23.39;47.07;99266.69;4379510;32;20110;-73
2022/06/03 07:45:36;;;;;;;;;;;;;;;23.33;45.15;99277.37;4361141;32;20103;-73
2022/06/03 07:48:11;;;;;;;4.25;2.67;;;;;;;23.27;45.38;99276.37;4372550;32;20025;-73
2022/06/03 07:50:43;;;;;;;;;;;;;;;23.32;46.05;99263.19;4372710;32;20091;-73
2022/06/03 07:53:19;;;;;;;3.08;2.53;;;;;;;23.23;46.00;99266.28;4372310;32;20081;-73
2022/06/03 07:55:55;;;;;;;11.90;2.75;;;;;;;23.56;47.64;99264.38;4412315;32;20106;-72
2022/06/03 07:58:24;;;;;;;4.95;2.60;;;;;;;23.70;44.42;99265.16;4417312;32;20120;-73
2022/06/03 08:00:52;;;;;;;6.97;2.72;;;;;;;23.73;44.64;99266.59;4425325;32;20097;-73
2022/06/03 08:03:22;;;;;;;3.87;2.72;;;;;;;23.97;45.61;99258.91;4431450;32;20143;-72
2022/06/03 08:05:57;;;;;;;3.47;2.42;;;;;;;24.02;44.55;99254.56;4454265;32;20115;-73
2022/06/03 08:11:17;;;;;;;6.03;2.70;;;;;;;24.01;44.27;99258.28;4473149;31;20161;-73
2022/06/03 08:13:50;;;;;;;3.65;2.60;;;;;;;24.14;43.04;99256.59;4477141;32;20092;-73
2022/06/03 08:16:39;;;;;;;2.95;2.55;;;;;;;24.37;43.19;99256.03;4478166;31;20100;-72
2022/06/03 08:19:20;;;;;;;4.25;2.33;;;;;;;24.65;43.97;99257.53;4481012;32;20108;-73
2022/06/03 08:21:53;;;;;;;5.22;2.50;;;;;;;24.77;42.75;99261.97;4476138;32;20384;-73
2022/06/03 08:24:33;;;;;;;3.53;2.22;;;;;;;24.95;41.63;99261.22;4478291;32;20080;-73
2022/06/03 08:27:34;;;;;;;3.00;2.25;;;;;;;24.60;41.23;99261.69;4476283;32;20142;-74
2022/06/03 08:30:10;;;;;;;4.65;2.45;;;;;;;24.64;42.13;99254.03;4445297;32;20177;-74
2022/06/03 08:32:45;;;;;;;4.43;2.37;;;;;;;24.85;41.11;99252.84;4444375;32;20260;-72
2022/06/03 08:35:19;;;;;;;3.15;2.45;;;;;;;24.91;40.82;99245.81;4449920;32;20101;-73
2022/06/03 08:37:50;;;;;;;5.55;2.85;;;;;;;25.01;43.05;99245.28;4449654;32;20124;-72
2022/06/03 08:40:20;;;;;;;5.37;2.55;;;;;;;25.32;40.99;99233.69;4437754;32;20569;-73
2022/06/03 08:43:03;;;;;;;6.18;2.28;;;;;;;25.33;39.31;99238.84;4448833;32;20189;-73
2022/06/03 08:46:00;;;;;;;4.40;2.30;;;;;;;25.07;39.23;99249.78;4434054;32;20101;-73
2022/06/03 08:48:33;;;;;;;3.85;2.33;;;;;;;25.02;39.41;99246.94;4427737;32;20109;-73
2022/06/03 08:51:06;;;;;;;6.28;2.20;;;;;;;25.35;40.65;99248.53;4434605;32;20110;-73
2022/06/03 08:53:49;;;;;;;4.40;2.25;;;;;;;25.19;39.37;99248.00;4447964;32;20124;-74
2022/06/03 08:56:20;;;;;;;6.87;2.12;;;;;;;25.54;42.25;99254.72;4444102;32;20146;-72
2022/06/03 08:58:56;;;;;;;4.00;2.30;;;;;;;25.51;39.45;99250.59;4432364;32;20113;-73
2022/06/03 09:01:44;;;;;;;2.53;2.30;;;;;;;25.33;38.92;99256.78;4444820;32;20187;-73
2022/06/03 09:04:19;;;;;;;4.30;2.35;;;;;;;25.64;40.27;99261.19;4430079;32;20128;-73
2022/06/03 09:07:24;;;;;;;2.78;2.33;;;;;;;25.76;39.70;99257.78;4473194;32;20164;-73
2022/06/03 09:10:01;;;;;;;7.37;2.35;;;;;;;25.79;41.28;99258.12;4476529;31;20092;-73
2022/06/03 09:12:29;;;;;;;4.65;2.67;;;;;;;25.64;39.43;99252.34;4480768;32;20088;-73
2022/06/03 09:15:01;;;;;;;4.20;2.35;;;;;;;25.97;40.77;99253.81;4471418;31;20922;-73
2022/06/03 09:17:53;;;;;;;7.93;2.37;;;;;;;26.07;39.57;99250.59;4469915;32;20097;-74
2022/06/03 09:20:34;;;;;;;3.55;2.40;;;;;;;26.10;38.07;99247.47;4474563;32;20100;-74
2022/06/03 09:23:07;;;;;;;3.70;2.22;;;;;;;25.74;38.21;99239.22;4479334;32;20164;-74
2022/06/03 09:25:38;;;;;;;4.87;2.30;;;;;;;26.05;40.88;99248.16;4478646;32;20092;-74
2022/06/03 09:28:06;;;;;;;3.75;2.25;;;;;;;26.01;39.45;99245.09;4478640;32;20081;-73
2022/06/03 09:30:38;;;;;;;3.28;2.25;;;;;;;26.12;40.29;99256.13;4476204;31;20150;-74
2022/06/03 09:33:08;;;;;;;5.53;2.50;;;;;;;26.31;38.37;99252.31;4474784;32;20157;-74
2022/06/03 09:35:38;;;;;;;12.57;3.22;;;;;;;26.42;37.40;99252.59;4470178;32;20123;-74
2022/06/03 09:38:06;;;;;;;2.45;2.25;;;;;;;26.34;37.26;99249.22;4475900;32;20599;-74
2022/06/03 09:40:36;;;;;;;4.45;3.35;;;;;;;26.36;38.23;99268.59;4477581;32;20777;-73
2022/06/03 09:43:09;;;;;;;5.18;2.47;;;;;;;26.16;37.92;99268.03;4479636;32;20100;-73
2022/06/03 09:45:46;;;;;;;2.55;2.30;;;;;;;26.21;41.71;99268.19;4476965;32;20096;-74
2022/06/03 09:48:17;;;;;;;5.85;2.70;;;;;;;26.38;38.73;99274.56;4480053;31;20644;-75
2022/06/03 09:50:47;;;;;;;3.45;2.75;;;;;;;26.18;39.50;99271.34;4473958;32;20686;-75
2022/06/03 09:53:18;;;;;;;4.18;2.42;;;;;;;26.52;39.56;99271.69;4473477;32;20148;-74
2022/06/03 09:55:51;;;;;;;5.55;2.40;;;;;;;26.70;38.42;99273.50;4479036;31;20114;-75
2022/06/03 09:58:28;;;;;;;3.53;2.47;;;;;;;26.50;40.96;99263.84;4480339;31;20087;-74
2022/06/03 10:00:57;;;;;;;5.10;2.50;;;;;;;26.60;37.83;99270.53;4472457;32;20802;-74
2022/06/03 10:03:26;;;;;;;4.97;3.08;;;;;;;26.48;38.19;99274.00;4471558;32;20166;-73
2022/06/03 10:05:56;;;;;;;8.15;2.50;;;;;;;26.76;38.82;99275.28;4476302;32;20088;-73
2022/06/03 10:08:28;;;;;;;3.22;2.55;;;;;;;26.97;38.53;99278.47;4474064;32;20145;-74
2022/06/03 10:13:42;;;;;;;3.95;2.60;;;;;;;27.20;38.47;99266.91;4475354;32;20104;-74
2022/06/03 10:16:10;;;;;;;2.70;2.15;;;;;;;27.07;39.42;99274.16;4481175;32;20131;-74
2022/06/03 10:18:46;;;;;;;3.10;1.98;;;;;;;27.04;39.52;99274.63;4476824;32;20088;-74
2022/06/03 10:21:14;;;;;;;4.00;2.12;;;;;;;27.15;38.73;99281.06;4478843;32;20496;-75
2022/06/03 10:23:45;;;;;;;2.78;2.33;;;;;;;27.31;35.90;99271.44;4479035;31;20127;-73
2022/06/03 10:26:33;;;;;;;4.37;2.50;;;;;;;27.60;36.72;99269.72;4482796;31;20117;-75
2022/06/03 10:29:13;;;;;;;4.40;2.10;;;;;;;27.50;35.41;99266.81;4484734;31;20084;-75
2022/06/03 10:32:07;;;;;;;2.62;2.12;;;;;;;27.18;36.37;99267.13;4482506;32;20092;-75
2022/06/03 10:34:37;;;;;;;5.10;2.35;;;;;;;27.11;35.42;99258.34;4481810;32;20163;-75
2022/06/03 10:37:08;;;;;;;2.90;2.58;;;;;;;27.33;35.89;99255.09;4480243;32;20093;-74
2022/06/03 10:39:35;;;;;;;2.58;2.37;;;;;;;27.13;37.50;99252.75;4477098;32;20153;-75
2022/06/03 10:42:03;;;;;;;6.68;2.47;;;;;;;27.01;36.98;99240.13;4479983;31;20165;-73
2022/06/03 10:44:33;;;;;;;5.53;2.30;;;;;;;27.16;36.82;99239.66;4476601;32;20179;-75
2022/06/03 10:47:06;;;;;;;23.27;3.97;;;;;;;27.04;36.94;99241.50;4478189;32;20146;-73
2022/06/03 10:49:57;;;;;;;4.62;2.37;;;;;;;27.24;38.78;99243.88;4485449;31;20079;-74
2022/06/03 11:01:19;;;;;;;10.27;2.40;;;;;;;28.50;37.35;99229.69;4479382;32;20114;-75
2022/06/03 11:03:51;;;;;;;5.47;2.77;;;;;;;28.57;37.23;99228.72;4481920;32;20166;-76
2022/06/03 11:06:25;;;;;;;5.22;2.15;;;;;;;28.95;35.47;99221.78;4482318;31;20088;-75
2022/06/03 11:08:58;;;;;;;4.18;2.50;;;;;;;28.88;34.77;99227.38;4471050;32;20120;-73
2022/06/03 11:11:47;;;;;;;22.00;2.17;;;;;;;28.77;35.06;99221.00;4482118;32;20089;-76
2022/06/03 11:14:38;;;;;;;2.65;2.00;;;;;;;28.70;35.41;99220.34;4475439;32;20100;-75
2022/06/03 11:17:12;;;;;;;3.45;1.83;;;;;;;29.08;35.84;99215.25;4479619;32;20105;-75
2022/06/03 11:19:44;;;;;;;4.75;2.12;;;;;;;29.15;32.05;99208.63;4473720;32;20100;-76
2022/06/03 11:22:17;;;;;;;;;;;;;;;29.24;34.23;99202.81;4479244;32;20092;-76
2022/06/03 11:25:12;;;;;;;4.87;2.00;;;;;;;29.56;34.87;99205.69;4482789;31;19979;-75
2022/06/03 11:27:47;;;;;;;4.25;2.60;;;;;;;29.74;34.68;99204.53;4435481;32;20113;-74
2022/06/03 11:30:33;;;;;;;7.12;2.62;;;;;;;29.62;35.28;99193.06;4432822;32;20093;-76
2022/06/03 11:33:17;;;;;;;6.25;2.22;;;;;;;29.73;35.96;99203.69;4424774;32;20109;-74
2022/06/03 11:35:52;;;;;;;8.45;2.25;;;;;;;29.47;34.56;99193.69;4432737;32;20805;-72
2022/06/03 11:38:31;;;;;;;4.85;2.08;;;;;;;29.18;34.35;99200.03;4447497;32;20297;-75
2022/06/03 11:41:02;;;;;;;4.20;1.83;;;;;;;29.09;32.73;99187.22;4446878;32;20097;-74
2022/06/03 11:43:34;;;;;;;2.65;1.95;;;;;;;29.49;33.98;99183.44;4430648;32;20104;-75
2022/06/03 11:46:50;;;;;;;3.60;2.03;;;;;;;29.58;34.21;99175.72;4450965;32;20581;-74
2022/06/03 11:49:19;;;;;;;2.70;1.90;;;;;;;29.48;35.14;99173.69;4436939;32;20143;-75
2022/06/03 11:51:46;;;;;;;2.20;2.00;;;;;;;28.96;35.33;99175.69;4444125;32;20097;-74
2022/06/03 11:54:15;;;;;;;3.03;2.10;;;;;;;29.14;35.67;99171.09;4433708;32;20571;-73
2022/06/03 11:56:45;;;;;;;4.32;2.20;;;;;;;29.11;32.80;99167.00;4426284;32;20101;-74
2022/06/03 11:59:13;;;;;;;3.45;2.22;;;;;;;29.04;32.72;99155.59;4429840;32;20104;-75
2022/06/03 12:01:40;;;;;;;3.08;2.10;;;;;;;29.11;33.99;99145.44;4427023;32;20139;-74
2022/06/03 12:04:28;;;;;;;4.97;2.30;;;;;;;29.33;36.52;99158.97;4449895;32;20088;-74
2022/06/03 12:07:36;;;;;;;9.27;2.37;;;;;;;29.75;34.71;99149.44;4483398;32;20115;-75
2022/06/03 12:10:40;;;;;;;6.47;2.40;;;;;;;29.73;32.53;99144.28;4473560;32;20462;-75
2022/06/03 12:13:18;;;;;;;4.03;2.15;;;;;;;29.89;34.57;99150.72;4477306;32;20474;-76
2022/06/03 12:15:55;;;;;;;4.22;2.08;;;;;;;30.20;34.28;99137.47;4476006;32;20145;-75
2022/06/03 12:18:37;;;;;;;5.22;2.50;;;;;;;30.75;33.05;99134.66;4475912;32;20166;-76
2022/06/03 12:21:07;;;;;;;2.90;1.80;;;;;;;31.04;33.88;99137.00;4483254;32;20100;-76
2022/06/03 12:23:37;;;;;;;4.80;1.90;;;;;;;31.31;31.35;99137.69;4479771;31;20179;-75
2022/06/03 12:26:31;;;;;;;1.95;1.80;;;;;;;31.21;30.13;99134.94;4483000;31;20092;-75
2022/06/03 12:29:08;;;;;;;2.85;2.20;;;;;;;31.02;30.43;99123.75;4478278;32;20100;-76
2022/06/03 12:31:41;;;;;;;4.43;2.03;;;;;;;30.53;31.21;99116.69;4475058;32;20096;-76
2022/06/03 12:34:08;;;;;;;3.25;2.00;;;;;;;30.58;29.31;99119.44;4480313;32;20096;-76
2022/06/03 12:36:51;;;;;;;3.25;1.70;;;;;;;30.60;30.17;99122.69;4481632;31;20633;-75
2022/06/03 12:39:18;;;;;;;2.80;2.00;;;;;;;30.13;31.55;99133.34;4480642;31;20521;-74
2022/06/03 12:41:46;;;;;;;2.33;1.67;;;;;;;30.03;34.24;99123.28;4479520;31;20108;-75
2022/06/03 12:44:31;;;;;;;1.80;1.70;;;;;;;29.96;32.31;99111.88;4482894;31;20084;-74
2022/06/03 12:47:35;;;;;;;2.58;1.62;;;;;;;29.95;31.60;99115.63;4481316;32;20080;-76
2022/06/03 12:50:05;;;;;;;2.95;1.77;;;;;;;30.21;31.65;99114.00;4474715;32;20127;-76
2022/06/03 12:52:35;;;;;;;2.62;1.73;;;;;;;30.74;31.47;99096.00;4484433;32;20532;-76
2022/06/03 12:55:13;;;;;;;4.10;1.87;;;;;;;30.69;29.87;99098.69;4479324;31;20175;-75
2022/06/03 12:57:52;;;;;;;4.53;1.83;;;;;;;30.49;31.19;99098.53;4481122;31;20076;-76
2022/06/03 13:00:38;;;;;;;2.35;1.90;;;;;;;30.78;31.56;99096.25;4483412;31;20104;-76
2022/06/03 13:03:25;;;;;;;3.00;1.70;;;;;;;31.08;32.60;99095.63;4477924;32;20181;-76
2022/06/03 13:05:58;;;;;;;3.53;1.50;;;;;;;31.71;30.88;99091.25;4483029;31;20111;-77
2022/06/03 13:09:34;;;;;;;2.53;1.70;;;;;;;31.62;30.28;99088.25;4479658;32;20427;-79
2022/06/03 13:11:26;;;;;;;6.60;1.70;;;;;;;31.97;28.72;99073.13;4484084;32;20096;-77